sensor_id;sensor_type;location;lat;lon;timestamp;P1;durP1;ratioP1;P2;durP2;ratioP2
46334;SDS011;32051;48.882;9.210;2022-08-24T00:01:23;3.17;;;2.67;;
46334;SDS011;32051;48.882;9.210;2022-08-24T00:03:49;3.15;;;2.92;;
46334;SDS011;32051;48.882;9.210;2022-08-24T00:06:17;11.15;;;3.40;;
46334;SDS011;32051;48.882;9.210;2022-08-24T00:08:44;4.80;;;3.22;;
46334;SDS011;32051;48.882;9.210;2022-08-24T00:11:14;6.40;;;3.13;;
46334;SDS011;32051;48.882;9.210;2022-08-24T00:13:40;12.10;;;3.20;;
46334;SDS011;32051;48.882;9.210;2022-08-24T00:16:06;4.22;;;3.15;;
46334;SDS011;32051;48.882;9.210;2022-08-24T00:18:34;9.27;;;2.65;;
46334;SDS011;32051;48.882;9.210;2022-08-24T00:21:00;6.85;;;2.83;;
46334;SDS011;32051;48.882;9.210;2022-08-24T00:23:26;7.88;;;3.80;;
46334;SDS011;32051;48.882;9.210;2022-08-24T00:25:53;6.40;;;4.07;;
46334;SDS011;32051;48.882;9.210;2022-08-24T00:28:19;5.13;;;2.97;;
46334;SDS011;32051;48.882;9.210;2022-08-24T00:30:45;9.07;;;3.65;;
46334;SDS011;32051;48.882;9.210;2022-08-24T00:33:10;10.05;;;4.35;;
46334;SDS011;32051;48.882;9.210;2022-08-24T00:35:36;7.03;;;3.17;;
46334;SDS011;32051;48.882;9.210;2022-08-24T00:38:02;12.65;;;4.13;;
46334;SDS011;32051;48.882;9.210;2022-08-24T00:40:29;10.13;;;3.58;;
46334;SDS011;32051;48.882;9.210;2022-08-24T00:43:02;7.00;;;3.30;;
46334;SDS011;32051;48.882;9.210;2022-08-24T00:45:30;5.40;;;3.38;;
46334;SDS011;32051;48.882;9.210;2022-08-24T00:48:02;5.70;;;3.28;;
46334;SDS011;32051;48.882;9.210;2022-08-24T00:50:34;8.57;;;3.22;;
46334;SDS011;32051;48.882;9.210;2022-08-24T00:53:23;11.15;;;4.45;;
46334;SDS011;32051;48.882;9.210;2022-08-24T00:55:54;5.50;;;3.65;;
46334;SDS011;32051;48.882;9.210;2022-08-24T00:58:27;5.40;;;3.17;;
46334;SDS011;32051;48.882;9.210;2022-08-24T01:00:58;5.47;;;3.45;;
46334;SDS011;32051;48.882;9.210;2022-08-24T01:03:27;3.83;;;2.85;;
46334;SDS011;32051;48.882;9.210;2022-08-24T01:05:54;11.55;;;3.10;;
46334;SDS011;32051;48.882;9.210;2022-08-24T01:08:21;7.18;;;3.35;;
46334;SDS011;32051;48.882;9.210;2022-08-24T01:11:05;3.67;;;3.05;;
46334;SDS011;32051;48.882;9.210;2022-08-24T01:13:39;4.00;;;3.67;;
46334;SDS011;32051;48.882;9.210;2022-08-24T01:16:07;3.25;;;2.88;;
46334;SDS011;32051;48.882;9.210;2022-08-24T01:18:35;4.32;;;2.85;;
46334;SDS011;32051;48.882;9.210;2022-08-24T01:21:29;7.15;;;3.50;;
46334;SDS011;32051;48.882;9.210;2022-08-24T01:23:59;8.13;;;3.55;;
46334;SDS011;32051;48.882;9.210;2022-08-24T01:26:31;4.22;;;2.85;;
46334;SDS011;32051;48.882;9.210;2022-08-24T01:29:07;5.32;;;2.40;;
46334;SDS011;32051;48.882;9.210;2022-08-24T01:31:35;8.02;;;3.65;;
46334;SDS011;32051;48.882;9.210;2022-08-24T01:34:01;6.82;;;2.47;;
46334;SDS011;32051;48.882;9.210;2022-08-24T01:36:37;7.43;;;2.90;;
46334;SDS011;32051;48.882;9.210;2022-08-24T01:39:10;5.03;;;2.13;;
46334;SDS011;32051;48.882;9.210;2022-08-24T01:41:37;5.22;;;2.42;;
46334;SDS011;32051;48.882;9.210;2022-08-24T01:44:03;6.18;;;2.13;;
46334;SDS011;32051;48.882;9.210;2022-08-24T01:46:29;6.10;;;2.88;;
46334;SDS011;32051;48.882;9.210;2022-08-24T01:48:56;4.32;;;2.70;;
46334;SDS011;32051;48.882;9.210;2022-08-24T01:51:23;11.35;;;2.38;;
46334;SDS011;32051;48.882;9.210;2022-08-24T01:53:50;4.68;;;2.55;;
46334;SDS011;32051;48.882;9.210;2022-08-24T01:56:16;5.43;;;2.50;;
46334;SDS011;32051;48.882;9.210;2022-08-24T01:58:43;7.45;;;2.42;;
46334;SDS011;32051;48.882;9.210;2022-08-24T02:01:11;6.28;;;2.70;;
46334;SDS011;32051;48.882;9.210;2022-08-24T02:03:37;3.42;;;2.50;;
46334;SDS011;32051;48.882;9.210;2022-08-24T02:06:04;4.05;;;2.63;;
46334;SDS011;32051;48.882;9.210;2022-08-24T02:08:30;11.60;;;2.65;;
46334;SDS011;32051;48.882;9.210;2022-08-24T02:11:07;4.55;;;3.35;;
46334;SDS011;32051;48.882;9.210;2022-08-24T02:13:34;3.63;;;2.35;;
46334;SDS011;32051;48.882;9.210;2022-08-24T02:16:02;5.25;;;2.40;;
46334;SDS011;32051;48.882;9.210;2022-08-24T02:18:31;7.93;;;3.55;;
46334;SDS011;32051;48.882;9.210;2022-08-24T02:20:58;8.15;;;3.15;;
46334;SDS011;32051;48.882;9.210;2022-08-24T02:23:25;3.70;;;3.08;;
46334;SDS011;32051;48.882;9.210;2022-08-24T02:25:53;2.60;;;2.40;;
46334;SDS011;32051;48.882;9.210;2022-08-24T02:28:20;2.58;;;2.47;;
46334;SDS011;32051;48.882;9.210;2022-08-24T02:30:47;2.40;;;2.20;;
46334;SDS011;32051;48.882;9.210;2022-08-24T02:33:13;4.15;;;2.97;;
46334;SDS011;32051;48.882;9.210;2022-08-24T02:35:39;4.20;;;2.65;;
46334;SDS011;32051;48.882;9.210;2022-08-24T02:38:06;5.93;;;2.83;;
46334;SDS011;32051;48.882;9.210;2022-08-24T02:40:34;3.00;;;2.50;;
46334;SDS011;32051;48.882;9.210;2022-08-24T02:43:01;4.05;;;2.92;;
46334;SDS011;32051;48.882;9.210;2022-08-24T02:45:27;3.22;;;2.72;;
46334;SDS011;32051;48.882;9.210;2022-08-24T02:47:53;4.03;;;2.42;;
46334;SDS011;32051;48.882;9.210;2022-08-24T02:50:21;9.27;;;2.80;;
46334;SDS011;32051;48.882;9.210;2022-08-24T02:52:47;5.43;;;2.55;;
46334;SDS011;32051;48.882;9.210;2022-08-24T02:55:15;2.78;;;2.58;;
46334;SDS011;32051;48.882;9.210;2022-08-24T02:57:42;4.32;;;2.20;;
46334;SDS011;32051;48.882;9.210;2022-08-24T03:00:09;6.10;;;2.42;;
46334;SDS011;32051;48.882;9.210;2022-08-24T03:02:42;3.20;;;2.60;;
46334;SDS011;32051;48.882;9.210;2022-08-24T03:05:09;5.93;;;2.65;;
46334;SDS011;32051;48.882;9.210;2022-08-24T03:07:35;3.78;;;2.85;;
46334;SDS011;32051;48.882;9.210;2022-08-24T03:10:03;4.65;;;2.47;;
46334;SDS011;32051;48.882;9.210;2022-08-24T03:12:30;3.47;;;2.05;;
46334;SDS011;32051;48.882;9.210;2022-08-24T03:14:56;2.70;;;2.20;;
46334;SDS011;32051;48.882;9.210;2022-08-24T03:17:23;3.40;;;2.30;;
46334;SDS011;32051;48.882;9.210;2022-08-24T03:19:49;2.58;;;2.38;;
46334;SDS011;32051;48.882;9.210;2022-08-24T03:22:15;2.70;;;2.35;;
46334;SDS011;32051;48.882;9.210;2022-08-24T03:24:41;5.13;;;1.95;;
46334;SDS011;32051;48.882;9.210;2022-08-24T03:27:07;2.88;;;2.63;;
46334;SDS011;32051;48.882;9.210;2022-08-24T03:29:33;2.92;;;2.70;;
46334;SDS011;32051;48.882;9.210;2022-08-24T03:32:01;3.10;;;2.33;;
46334;SDS011;32051;48.882;9.210;2022-08-24T03:34:28;6.63;;;2.25;;
46334;SDS011;32051;48.882;9.210;2022-08-24T03:36:54;2.65;;;2.35;;
46334;SDS011;32051;48.882;9.210;2022-08-24T03:39:20;6.53;;;2.60;;
46334;SDS011;32051;48.882;9.210;2022-08-24T03:41:51;6.30;;;2.58;;
46334;SDS011;32051;48.882;9.210;2022-08-24T03:44:17;2.33;;;1.90;;
46334;SDS011;32051;48.882;9.210;2022-08-24T03:46:43;6.35;;;2.63;;
46334;SDS011;32051;48.882;9.210;2022-08-24T03:49:10;7.82;;;3.20;;
46334;SDS011;32051;48.882;9.210;2022-08-24T03:51:39;5.80;;;3.45;;
46334;SDS011;32051;48.882;9.210;2022-08-24T03:54:07;3.08;;;2.80;;
46334;SDS011;32051;48.882;9.210;2022-08-24T03:56:34;3.00;;;2.70;;
46334;SDS011;32051;48.882;9.210;2022-08-24T03:59:00;3.28;;;2.97;;
46334;SDS011;32051;48.882;9.210;2022-08-24T04:01:30;7.00;;;3.63;;
46334;SDS011;32051;48.882;9.210;2022-08-24T04:03:57;3.38;;;3.08;;
46334;SDS011;32051;48.882;9.210;2022-08-24T04:06:28;5.68;;;2.83;;
46334;SDS011;32051;48.882;9.210;2022-08-24T04:08:54;3.60;;;3.35;;
46334;SDS011;32051;48.882;9.210;2022-08-24T04:11:22;10.70;;;4.03;;
46334;SDS011;32051;48.882;9.210;2022-08-24T04:13:50;4.35;;;3.97;;
46334;SDS011;32051;48.882;9.210;2022-08-24T04:16:17;5.22;;;3.70;;
46334;SDS011;32051;48.882;9.210;2022-08-24T04:18:50;4.47;;;4.07;;
46334;SDS011;32051;48.882;9.210;2022-08-24T04:21:24;4.43;;;3.97;;
46334;SDS011;32051;48.882;9.210;2022-08-24T04:23:51;4.88;;;4.13;;
46334;SDS011;32051;48.882;9.210;2022-08-24T04:26:18;4.25;;;3.95;;
46334;SDS011;32051;48.882;9.210;2022-08-24T04:28:45;4.35;;;4.05;;
46334;SDS011;32051;48.882;9.210;2022-08-24T04:31:12;5.13;;;3.75;;
46334;SDS011;32051;48.882;9.210;2022-08-24T04:33:42;7.13;;;4.78;;
46334;SDS011;32051;48.882;9.210;2022-08-24T04:36:09;13.48;;;5.22;;
46334;SDS011;32051;48.882;9.210;2022-08-24T04:38:39;4.97;;;4.47;;
46334;SDS011;32051;48.882;9.210;2022-08-24T04:41:22;5.05;;;4.18;;
46334;SDS011;32051;48.882;9.210;2022-08-24T04:43:48;9.02;;;3.78;;
46334;SDS011;32051;48.882;9.210;2022-08-24T04:46:15;8.40;;;4.40;;
46334;SDS011;32051;48.882;9.210;2022-08-24T04:48:43;9.60;;;5.10;;
46334;SDS011;32051;48.882;9.210;2022-08-24T04:51:10;7.88;;;4.53;;
46334;SDS011;32051;48.882;9.210;2022-08-24T04:53:37;4.88;;;4.55;;
46334;SDS011;32051;48.882;9.210;2022-08-24T04:56:07;4.63;;;4.22;;
46334;SDS011;32051;48.882;9.210;2022-08-24T04:58:34;9.23;;;4.32;;
46334;SDS011;32051;48.882;9.210;2022-08-24T05:01:00;6.03;;;5.43;;
46334;SDS011;32051;48.882;9.210;2022-08-24T05:03:26;5.10;;;4.60;;
46334;SDS011;32051;48.882;9.210;2022-08-24T05:05:52;4.95;;;3.67;;
46334;SDS011;32051;48.882;9.210;2022-08-24T05:08:19;5.22;;;4.50;;
46334;SDS011;32051;48.882;9.210;2022-08-24T05:10:45;11.95;;;4.47;;
46334;SDS011;32051;48.882;9.210;2022-08-24T05:13:12;9.80;;;3.97;;
46334;SDS011;32051;48.882;9.210;2022-08-24T05:15:39;7.82;;;4.13;;
46334;SDS011;32051;48.882;9.210;2022-08-24T05:18:06;4.57;;;3.90;;
46334;SDS011;32051;48.882;9.210;2022-08-24T05:20:32;14.88;;;4.63;;
46334;SDS011;32051;48.882;9.210;2022-08-24T05:23:00;5.25;;;4.75;;
46334;SDS011;32051;48.882;9.210;2022-08-24T05:25:26;6.05;;;4.40;;
46334;SDS011;32051;48.882;9.210;2022-08-24T05:27:53;9.43;;;4.90;;
46334;SDS011;32051;48.882;9.210;2022-08-24T05:30:19;5.07;;;4.70;;
46334;SDS011;32051;48.882;9.210;2022-08-24T05:32:46;6.80;;;3.85;;
46334;SDS011;32051;48.882;9.210;2022-08-24T05:35:13;8.30;;;4.22;;
46334;SDS011;32051;48.882;9.210;2022-08-24T05:37:39;6.90;;;3.70;;
46334;SDS011;32051;48.882;9.210;2022-08-24T05:40:15;7.28;;;4.00;;
46334;SDS011;32051;48.882;9.210;2022-08-24T05:42:44;18.50;;;5.70;;
46334;SDS011;32051;48.882;9.210;2022-08-24T05:45:11;10.25;;;4.53;;
46334;SDS011;32051;48.882;9.210;2022-08-24T05:47:37;5.03;;;3.85;;
46334;SDS011;32051;48.882;9.210;2022-08-24T05:50:13;18.60;;;4.13;;
46334;SDS011;32051;48.882;9.210;2022-08-24T05:52:40;6.18;;;3.22;;
46334;SDS011;32051;48.882;9.210;2022-08-24T05:55:06;9.98;;;4.10;;
46334;SDS011;32051;48.882;9.210;2022-08-24T05:57:33;5.20;;;3.97;;
46334;SDS011;32051;48.882;9.210;2022-08-24T06:00:10;8.43;;;4.18;;
46334;SDS011;32051;48.882;9.210;2022-08-24T06:02:45;4.20;;;3.80;;
46334;SDS011;32051;48.882;9.210;2022-08-24T06:05:12;4.82;;;3.63;;
46334;SDS011;32051;48.882;9.210;2022-08-24T06:07:39;27.42;;;4.82;;
46334;SDS011;32051;48.882;9.210;2022-08-24T06:10:06;9.52;;;4.38;;
46334;SDS011;32051;48.882;9.210;2022-08-24T06:12:32;10.93;;;3.90;;
46334;SDS011;32051;48.882;9.210;2022-08-24T06:14:59;12.50;;;3.95;;
46334;SDS011;32051;48.882;9.210;2022-08-24T06:17:25;5.95;;;3.95;;
46334;SDS011;32051;48.882;9.210;2022-08-24T06:19:51;5.53;;;3.10;;
46334;SDS011;32051;48.882;9.210;2022-08-24T06:22:17;5.75;;;3.08;;
46334;SDS011;32051;48.882;9.210;2022-08-24T06:24:44;13.50;;;3.45;;
46334;SDS011;32051;48.882;9.210;2022-08-24T06:27:29;6.10;;;2.60;;
46334;SDS011;32051;48.882;9.210;2022-08-24T06:29:57;2.85;;;2.65;;
46334;SDS011;32051;48.882;9.210;2022-08-24T06:32:50;4.55;;;3.17;;
46334;SDS011;32051;48.882;9.210;2022-08-24T06:35:39;8.90;;;2.78;;
46334;SDS011;32051;48.882;9.210;2022-08-24T06:38:06;9.25;;;2.67;;
46334;SDS011;32051;48.882;9.210;2022-08-24T06:40:32;4.10;;;2.70;;
46334;SDS011;32051;48.882;9.210;2022-08-24T06:43:00;5.40;;;3.20;;
46334;SDS011;32051;48.882;9.210;2022-08-24T06:45:36;6.88;;;3.35;;
46334;SDS011;32051;48.882;9.210;2022-08-24T06:48:02;3.67;;;3.33;;
46334;SDS011;32051;48.882;9.210;2022-08-24T06:50:29;3.42;;;2.25;;
46334;SDS011;32051;48.882;9.210;2022-08-24T06:52:55;4.43;;;3.50;;
46334;SDS011;32051;48.882;9.210;2022-08-24T06:55:23;3.22;;;2.20;;
46334;SDS011;32051;48.882;9.210;2022-08-24T06:57:49;7.78;;;2.40;;
46334;SDS011;32051;48.882;9.210;2022-08-24T07:00:15;9.65;;;2.17;;
46334;SDS011;32051;48.882;9.210;2022-08-24T07:02:43;2.83;;;2.63;;
46334;SDS011;32051;48.882;9.210;2022-08-24T07:05:09;3.30;;;2.38;;
46334;SDS011;32051;48.882;9.210;2022-08-24T07:08:05;10.50;;;2.35;;
46334;SDS011;32051;48.882;9.210;2022-08-24T07:10:32;9.15;;;1.77;;
46334;SDS011;32051;48.882;9.210;2022-08-24T07:12:59;4.43;;;2.30;;
46334;SDS011;32051;48.882;9.210;2022-08-24T07:15:25;3.50;;;1.80;;
46334;SDS011;32051;48.882;9.210;2022-08-24T07:18:12;2.95;;;1.73;;
46334;SDS011;32051;48.882;9.210;2022-08-24T07:20:43;4.57;;;2.33;;
46334;SDS011;32051;48.882;9.210;2022-08-24T07:23:16;7.40;;;1.83;;
46334;SDS011;32051;48.882;9.210;2022-08-24T07:25:44;4.05;;;1.63;;
46334;SDS011;32051;48.882;9.210;2022-08-24T07:28:11;5.45;;;1.63;;
46334;SDS011;32051;48.882;9.210;2022-08-24T07:30:39;5.18;;;3.08;;
46334;SDS011;32051;48.882;9.210;2022-08-24T07:33:05;7.35;;;2.63;;
46334;SDS011;32051;48.882;9.210;2022-08-24T07:35:33;5.93;;;2.70;;
46334;SDS011;32051;48.882;9.210;2022-08-24T07:38:01;4.90;;;2.08;;
46334;SDS011;32051;48.882;9.210;2022-08-24T07:40:27;6.10;;;2.15;;
46334;SDS011;32051;48.882;9.210;2022-08-24T07:42:54;5.50;;;1.52;;
46334;SDS011;32051;48.882;9.210;2022-08-24T07:45:20;2.55;;;1.75;;
46334;SDS011;32051;48.882;9.210;2022-08-24T07:47:49;4.82;;;2.05;;
46334;SDS011;32051;48.882;9.210;2022-08-24T07:50:38;2.50;;;1.42;;
46334;SDS011;32051;48.882;9.210;2022-08-24T07:53:04;7.43;;;1.73;;
46334;SDS011;32051;48.882;9.210;2022-08-24T07:55:32;7.55;;;1.98;;
46334;SDS011;32051;48.882;9.210;2022-08-24T07:57:58;2.55;;;1.48;;
46334;SDS011;32051;48.882;9.210;2022-08-24T08:00:24;4.22;;;2.13;;
46334;SDS011;32051;48.882;9.210;2022-08-24T08:02:56;3.08;;;1.98;;
46334;SDS011;32051;48.882;9.210;2022-08-24T08:05:23;9.90;;;1.80;;
46334;SDS011;32051;48.882;9.210;2022-08-24T08:07:51;3.53;;;1.30;;
46334;SDS011;32051;48.882;9.210;2022-08-24T08:10:18;1.75;;;1.50;;
46334;SDS011;32051;48.882;9.210;2022-08-24T08:12:48;1.70;;;1.25;;
46334;SDS011;32051;48.882;9.210;2022-08-24T08:15:14;2.95;;;1.70;;
46334;SDS011;32051;48.882;9.210;2022-08-24T08:17:51;1.45;;;1.20;;
46334;SDS011;32051;48.882;9.210;2022-08-24T08:20:18;4.93;;;1.50;;
46334;SDS011;32051;48.882;9.210;2022-08-24T08:22:44;8.85;;;1.30;;
46334;SDS011;32051;48.882;9.210;2022-08-24T08:25:48;1.85;;;1.30;;
46334;SDS011;32051;48.882;9.210;2022-08-24T08:28:23;7.35;;;1.48;;
46334;SDS011;32051;48.882;9.210;2022-08-24T08:30:49;0.90;;;0.90;;
46334;SDS011;32051;48.882;9.210;2022-08-24T08:33:17;2.80;;;1.40;;
46334;SDS011;32051;48.882;9.210;2022-08-24T08:35:44;3.00;;;1.38;;
46334;SDS011;32051;48.882;9.210;2022-08-24T08:38:10;1.45;;;0.95;;
46334;SDS011;32051;48.882;9.210;2022-08-24T08:43:25;1.83;;;0.90;;
46334;SDS011;32051;48.882;9.210;2022-08-24T08:52:02;3.92;;;1.27;;
46334;SDS011;32051;48.882;9.210;2022-08-24T08:57:38;1.15;;;1.05;;
46334;SDS011;32051;48.882;9.210;2022-08-24T09:00:10;3.03;;;1.23;;
46334;SDS011;32051;48.882;9.210;2022-08-24T09:02:43;0.95;;;0.90;;
46334;SDS011;32051;48.882;9.210;2022-08-24T09:05:20;5.30;;;1.00;;
46334;SDS011;32051;48.882;9.210;2022-08-24T09:07:59;1.60;;;0.82;;
46334;SDS011;32051;48.882;9.210;2022-08-24T09:10:35;2.88;;;1.00;;
46334;SDS011;32051;48.882;9.210;2022-08-24T09:30:45;4.40;;;1.38;;
46334;SDS011;32051;48.882;9.210;2022-08-24T09:35:59;1.70;;;1.00;;
46334;SDS011;32051;48.882;9.210;2022-08-24T09:38:43;7.75;;;1.20;;
46334;SDS011;32051;48.882;9.210;2022-08-24T09:43:50;0.82;;;0.70;;
46334;SDS011;32051;48.882;9.210;2022-08-24T09:49:20;0.82;;;0.82;;
46334;SDS011;32051;48.882;9.210;2022-08-24T09:57:10;1.38;;;0.88;;
46334;SDS011;32051;48.882;9.210;2022-08-24T09:59:44;3.75;;;1.98;;
46334;SDS011;32051;48.882;9.210;2022-08-24T10:04:53;1.52;;;1.40;;
46334;SDS011;32051;48.882;9.210;2022-08-24T10:07:30;4.57;;;1.35;;
46334;SDS011;32051;48.882;9.210;2022-08-24T10:15:03;0.80;;;0.80;;
46334;SDS011;32051;48.882;9.210;2022-08-24T10:19:59;6.13;;;1.30;;
46334;SDS011;32051;48.882;9.210;2022-08-24T10:24:59;1.73;;;1.05;;
46334;SDS011;32051;48.882;9.210;2022-08-24T10:54:55;1.67;;;0.60;;
46334;SDS011;32051;48.882;9.210;2022-08-24T10:57:41;2.60;;;0.50;;
46334;SDS011;32051;48.882;9.210;2022-08-24T11:00:15;0.70;;;0.70;;
46334;SDS011;32051;48.882;9.210;2022-08-24T11:02:44;0.93;;;0.90;;
46334;SDS011;32051;48.882;9.210;2022-08-24T11:05:15;2.38;;;0.93;;
46334;SDS011;32051;48.882;9.210;2022-08-24T11:08:01;3.50;;;0.77;;
46334;SDS011;32051;48.882;9.210;2022-08-24T11:10:33;0.70;;;0.70;;
46334;SDS011;32051;48.882;9.210;2022-08-24T11:13:18;3.35;;;0.70;;
46334;SDS011;32051;48.882;9.210;2022-08-24T11:15:48;1.67;;;0.60;;
46334;SDS011;32051;48.882;9.210;2022-08-24T11:18:15;0.82;;;0.60;;
46334;SDS011;32051;48.882;9.210;2022-08-24T11:20:43;0.93;;;0.75;;
46334;SDS011;32051;48.882;9.210;2022-08-24T11:23:18;1.38;;;0.80;;
46334;SDS011;32051;48.882;9.210;2022-08-24T11:25:53;0.63;;;0.63;;
46334;SDS011;32051;48.882;9.210;2022-08-24T11:28:24;0.98;;;0.70;;
46334;SDS011;32051;48.882;9.210;2022-08-24T11:30:57;1.95;;;0.75;;
46334;SDS011;32051;48.882;9.210;2022-08-24T11:33:29;5.28;;;0.57;;
46334;SDS011;32051;48.882;9.210;2022-08-24T11:35:55;2.00;;;0.88;;
46334;SDS011;32051;48.882;9.210;2022-08-24T11:38:23;4.07;;;0.80;;
46334;SDS011;32051;48.882;9.210;2022-08-24T11:46:15;0.47;;;0.47;;
46334;SDS011;32051;48.882;9.210;2022-08-24T11:51:54;0.90;;;0.63;;
46334;SDS011;32051;48.882;9.210;2022-08-24T12:02:39;2.28;;;0.52;;
46334;SDS011;32051;48.882;9.210;2022-08-24T12:06:43;0.55;;;0.55;;
46334;SDS011;32051;48.882;9.210;2022-08-24T12:08:49;0.60;;;0.60;;
46334;SDS011;32051;48.882;9.210;2022-08-24T12:16:57;1.20;;;0.95;;
46334;SDS011;32051;48.882;9.210;2022-08-24T12:19:48;5.45;;;0.90;;
46334;SDS011;32051;48.882;9.210;2022-08-24T12:22:19;4.20;;;0.80;;
46334;SDS011;32051;48.882;9.210;2022-08-24T12:24:48;1.38;;;0.73;;
46334;SDS011;32051;48.882;9.210;2022-08-24T12:29:54;0.93;;;0.60;;
46334;SDS011;32051;48.882;9.210;2022-08-24T12:32:31;0.95;;;0.90;;
46334;SDS011;32051;48.882;9.210;2022-08-24T12:37:57;0.82;;;0.50;;
46334;SDS011;32051;48.882;9.210;2022-08-24T12:40:50;1.08;;;0.60;;
46334;SDS011;32051;48.882;9.210;2022-08-24T12:43:26;1.58;;;0.73;;
46334;SDS011;32051;48.882;9.210;2022-08-24T12:46:00;2.92;;;1.17;;
46334;SDS011;32051;48.882;9.210;2022-08-24T12:48:28;2.88;;;1.02;;
46334;SDS011;32051;48.882;9.210;2022-08-24T12:51:20;3.63;;;0.63;;
46334;SDS011;32051;48.882;9.210;2022-08-24T12:56:52;2.28;;;1.08;;
46334;SDS011;32051;48.882;9.210;2022-08-24T12:59:24;0.88;;;0.60;;
46334;SDS011;32051;48.882;9.210;2022-08-24T13:04:32;1.85;;;0.70;;
46334;SDS011;32051;48.882;9.210;2022-08-24T13:07:05;4.32;;;0.55;;
46334;SDS011;32051;48.882;9.210;2022-08-24T13:09:42;2.95;;;0.80;;
46334;SDS011;32051;48.882;9.210;2022-08-24T13:17:47;5.78;;;0.65;;
46334;SDS011;32051;48.882;9.210;2022-08-24T13:22:45;0.85;;;0.55;;
46334;SDS011;32051;48.882;9.210;2022-08-24T13:25:45;2.90;;;0.60;;
46334;SDS011;32051;48.882;9.210;2022-08-24T13:30:56;3.50;;;0.70;;
46334;SDS011;32051;48.882;9.210;2022-08-24T13:33:32;0.60;;;0.60;;
46334;SDS011;32051;48.882;9.210;2022-08-24T13:36:35;2.63;;;0.75;;
46334;SDS011;32051;48.882;9.210;2022-08-24T13:39:02;0.93;;;0.90;;
46334;SDS011;32051;48.882;9.210;2022-08-24T13:41:48;2.30;;;0.93;;
46334;SDS011;32051;48.882;9.210;2022-08-24T13:44:26;1.98;;;0.77;;
46334;SDS011;32051;48.882;9.210;2022-08-24T13:54:50;2.47;;;0.68;;
46334;SDS011;32051;48.882;9.210;2022-08-24T14:00:55;1.15;;;0.70;;
46334;SDS011;32051;48.882;9.210;2022-08-24T14:03:05;0.63;;;0.63;;
46334;SDS011;32051;48.882;9.210;2022-08-24T14:05:35;1.55;;;0.70;;
46334;SDS011;32051;48.882;9.210;2022-08-24T14:08:46;1.00;;;0.90;;
46334;SDS011;32051;48.882;9.210;2022-08-24T14:11:35;1.23;;;0.60;;
46334;SDS011;32051;48.882;9.210;2022-08-24T14:14:25;1.00;;;0.70;;
46334;SDS011;32051;48.882;9.210;2022-08-24T14:25:40;2.35;;;0.70;;
46334;SDS011;32051;48.882;9.210;2022-08-24T14:31:27;0.63;;;0.63;;
46334;SDS011;32051;48.882;9.210;2022-08-24T14:33:59;3.83;;;0.60;;
46334;SDS011;32051;48.882;9.210;2022-08-24T14:36:50;0.60;;;0.60;;
46334;SDS011;32051;48.882;9.210;2022-08-24T14:39:41;0.85;;;0.60;;
46334;SDS011;32051;48.882;9.210;2022-08-24T14:42:13;3.90;;;0.88;;
46334;SDS011;32051;48.882;9.210;2022-08-24T14:49:50;0.80;;;0.80;;
46334;SDS011;32051;48.882;9.210;2022-08-24T14:54:51;4.70;;;0.85;;
46334;SDS011;32051;48.882;9.210;2022-08-24T14:59:56;1.45;;;1.17;;
46334;SDS011;32051;48.882;9.210;2022-08-24T15:04:54;0.80;;;0.80;;
46334;SDS011;32051;48.882;9.210;2022-08-24T15:07:25;5.10;;;1.08;;
46334;SDS011;32051;48.882;9.210;2022-08-24T15:09:52;0.80;;;0.80;;
46334;SDS011;32051;48.882;9.210;2022-08-24T15:12:41;1.85;;;0.88;;
46334;SDS011;32051;48.882;9.210;2022-08-24T15:23:16;3.97;;;0.98;;
46334;SDS011;32051;48.882;9.210;2022-08-24T15:25:49;8.43;;;1.00;;
46334;SDS011;32051;48.882;9.210;2022-08-24T15:28:27;2.75;;;1.30;;
46334;SDS011;32051;48.882;9.210;2022-08-24T15:33:20;2.40;;;1.25;;
46334;SDS011;32051;48.882;9.210;2022-08-24T15:35:48;0.95;;;0.90;;
46334;SDS011;32051;48.882;9.210;2022-08-24T15:38:16;4.35;;;0.90;;
46334;SDS011;32051;48.882;9.210;2022-08-24T15:40:43;5.82;;;1.02;;
46334;SDS011;32051;48.882;9.210;2022-08-24T15:43:09;0.95;;;0.90;;
46334;SDS011;32051;48.882;9.210;2022-08-24T15:45:37;0.82;;;0.75;;
46334;SDS011;32051;48.882;9.210;2022-08-24T15:48:08;1.00;;;0.90;;
46334;SDS011;32051;48.882;9.210;2022-08-24T15:50:40;2.80;;;0.82;;
46334;SDS011;32051;48.882;9.210;2022-08-24T15:53:27;1.15;;;1.10;;
46334;SDS011;32051;48.882;9.210;2022-08-24T15:55:54;2.40;;;0.80;;
46334;SDS011;32051;48.882;9.210;2022-08-24T16:00:46;0.60;;;0.60;;
46334;SDS011;32051;48.882;9.210;2022-08-24T16:03:50;1.67;;;0.80;;
46334;SDS011;32051;48.882;9.210;2022-08-24T16:06:18;0.95;;;0.80;;
46334;SDS011;32051;48.882;9.210;2022-08-24T16:09:05;3.00;;;1.65;;
46334;SDS011;32051;48.882;9.210;2022-08-24T16:11:35;3.08;;;0.90;;
46334;SDS011;32051;48.882;9.210;2022-08-24T16:14:03;1.42;;;0.90;;
46334;SDS011;32051;48.882;9.210;2022-08-24T16:16:34;0.80;;;0.80;;
46334;SDS011;32051;48.882;9.210;2022-08-24T16:19:02;3.70;;;0.80;;
46334;SDS011;32051;48.882;9.210;2022-08-24T16:21:30;7.82;;;1.00;;
46334;SDS011;32051;48.882;9.210;2022-08-24T16:23:58;1.20;;;0.60;;
46334;SDS011;32051;48.882;9.210;2022-08-24T16:26:27;0.93;;;0.90;;
46334;SDS011;32051;48.882;9.210;2022-08-24T16:28:54;1.05;;;0.80;;
46334;SDS011;32051;48.882;9.210;2022-08-24T16:37:06;0.80;;;0.80;;
46334;SDS011;32051;48.882;9.210;2022-08-24T16:39:32;3.50;;;0.95;;
46334;SDS011;32051;48.882;9.210;2022-08-24T16:42:03;2.08;;;0.82;;
46334;SDS011;32051;48.882;9.210;2022-08-24T16:44:38;2.05;;;1.30;;
46334;SDS011;32051;48.882;9.210;2022-08-24T16:47:05;1.08;;;1.08;;
46334;SDS011;32051;48.882;9.210;2022-08-24T16:49:31;2.78;;;0.85;;
46334;SDS011;32051;48.882;9.210;2022-08-24T16:51:58;1.13;;;1.00;;
46334;SDS011;32051;48.882;9.210;2022-08-24T16:54:24;2.65;;;0.82;;
46334;SDS011;32051;48.882;9.210;2022-08-24T16:56:51;2.33;;;0.80;;
46334;SDS011;32051;48.882;9.210;2022-08-24T16:59:23;2.90;;;1.25;;
46334;SDS011;32051;48.882;9.210;2022-08-24T17:01:50;0.85;;;0.73;;
46334;SDS011;32051;48.882;9.210;2022-08-24T17:04:16;0.90;;;0.90;;
46334;SDS011;32051;48.882;9.210;2022-08-24T17:06:42;0.90;;;0.90;;
46334;SDS011;32051;48.882;9.210;2022-08-24T17:09:08;1.58;;;1.00;;
46334;SDS011;32051;48.882;9.210;2022-08-24T17:11:34;5.88;;;0.90;;
46334;SDS011;32051;48.882;9.210;2022-08-24T17:14:01;0.82;;;0.82;;
46334;SDS011;32051;48.882;9.210;2022-08-24T17:16:27;0.88;;;0.88;;
46334;SDS011;32051;48.882;9.210;2022-08-24T17:18:55;5.22;;;1.30;;
46334;SDS011;32051;48.882;9.210;2022-08-24T17:21:22;0.80;;;0.75;;
46334;SDS011;32051;48.882;9.210;2022-08-24T17:23:49;1.13;;;0.98;;
46334;SDS011;32051;48.882;9.210;2022-08-24T17:26:15;1.88;;;0.75;;
46334;SDS011;32051;48.882;9.210;2022-08-24T17:28:42;2.33;;;1.00;;
46334;SDS011;32051;48.882;9.210;2022-08-24T17:31:11;3.63;;;1.20;;
46334;SDS011;32051;48.882;9.210;2022-08-24T17:33:37;1.20;;;1.10;;
46334;SDS011;32051;48.882;9.210;2022-08-24T17:36:04;1.20;;;1.10;;
46334;SDS011;32051;48.882;9.210;2022-08-24T17:38:30;1.13;;;1.02;;
46334;SDS011;32051;48.882;9.210;2022-08-24T17:40:57;2.38;;;0.82;;
46334;SDS011;32051;48.882;9.210;2022-08-24T17:43:25;0.65;;;0.65;;
46334;SDS011;32051;48.882;9.210;2022-08-24T17:45:51;1.25;;;1.25;;
46334;SDS011;32051;48.882;9.210;2022-08-24T17:48:19;1.45;;;1.02;;
46334;SDS011;32051;48.882;9.210;2022-08-24T17:50:46;1.20;;;0.90;;
46334;SDS011;32051;48.882;9.210;2022-08-24T17:53:12;1.35;;;1.00;;
46334;SDS011;32051;48.882;9.210;2022-08-24T17:55:38;0.82;;;0.82;;
46334;SDS011;32051;48.882;9.210;2022-08-24T17:58:05;2.72;;;0.95;;
46334;SDS011;32051;48.882;9.210;2022-08-24T18:00:31;0.70;;;0.70;;
46334;SDS011;32051;48.882;9.210;2022-08-24T18:02:57;0.95;;;0.73;;
46334;SDS011;32051;48.882;9.210;2022-08-24T18:05:23;1.30;;;0.80;;
46334;SDS011;32051;48.882;9.210;2022-08-24T18:07:51;0.80;;;0.80;;
46334;SDS011;32051;48.882;9.210;2022-08-24T18:10:19;1.00;;;1.00;;